Time;durP1;ratioP1;P1;durP2;ratioP2;P2;SDS_P1;SDS_P2;PMS_P1;PMS_P2;Temp;Humidity;BMP_temperature;BMP_pressure;BME280_temperature;BME280_humidity;BME280_pressure;Samples;Min_cycle;Max_cycle;Signal;HPM_P1;HPM_P2
2023/04/29 00:00:24;;;;;;;0.00;0.00;;;19.00;99.90;;;;;;4921735;29;20034;-93
2023/04/29 00:02:49;;;;;;;0.38;0.30;;;18.50;99.90;;;;;;4937469;29;20063;-93
2023/04/29 00:05:15;;;;;;;0.10;0.10;;;18.50;99.90;;;;;;4954452;29;20299;-93
2023/04/29 00:07:42;;;;;;;0.10;0.10;;;18.40;99.90;;;;;;4954599;29;20086;-93
2023/04/29 00:10:08;;;;;;;0.13;0.10;;;18.30;99.90;;;;;;4954551;29;20027;-93
2023/04/29 00:12:33;;;;;;;0.10;0.10;;;18.30;99.90;;;;;;4954208;29;20042;-93
2023/04/29 00:15:01;;;;;;;0.10;0.10;;;18.30;99.90;;;;;;4954106;29;20027;-94
2023/04/29 00:17:27;;;;;;;0.00;0.00;;;18.40;99.90;;;;;;4954158;29;20067;-93
2023/04/29 00:19:53;;;;;;;0.03;0.03;;;18.30;99.90;;;;;;4936975;29;20047;-92
2023/04/29 00:22:20;;;;;;;0.05;0.05;;;18.30;99.90;;;;;;4953851;29;20060;-92
2023/04/29 00:24:46;;;;;;;0.15;0.15;;;18.20;99.90;;;;;;4954787;29;20024;-92
2023/04/29 00:27:12;;;;;;;0.10;0.10;;;18.20;99.90;;;;;;4954245;29;20031;-93
2023/04/29 00:29:37;;;;;;;0.10;0.10;;;18.10;99.90;;;;;;4936630;29;20123;-93
2023/04/29 00:32:03;;;;;;;0.63;0.63;;;18.20;99.90;;;;;;4938913;29;20034;-93
2023/04/29 00:34:29;;;;;;;0.30;0.30;;;18.30;99.90;;;;;;4957843;29;20074;-93
2023/04/29 00:36:55;;;;;;;0.10;0.10;;;18.30;99.90;;;;;;4956677;29;20515;-93
2023/04/29 00:39:20;;;;;;;0.00;0.00;;;18.40;99.90;;;;;;4940605;29;20495;-93
2023/04/29 00:41:46;;;;;;;0.13;0.13;;;18.30;99.90;;;;;;4957500;29;20041;-93
2023/04/29 00:44:12;;;;;;;0.10;0.10;;;18.30;99.90;;;;;;4957818;29;20130;-93
2023/04/29 00:46:37;;;;;;;0.10;0.10;;;18.30;99.90;;;;;;4965979;28;20019;-93
2023/04/29 00:49:03;;;;;;;0.10;0.10;;;18.30;99.90;;;;;;4959260;28;20027;-92
2023/04/29 00:51:29;;;;;;;0.20;0.20;;;18.30;99.90;;;;;;4943427;28;20069;-93
2023/04/29 00:53:55;;;;;;;0.00;0.00;;;18.40;99.90;;;;;;4976780;28;20058;-93
2023/04/29 00:56:21;;;;;;;0.05;0.05;;;18.30;99.90;;;;;;4959542;28;20038;-94
2023/04/29 00:58:49;;;;;;;0.00;0.00;;;18.20;99.90;;;;;;4959727;28;20041;-94
2023/04/29 01:01:21;;;;;;;0.03;0.03;;;18.20;99.90;;;;;;4976709;28;20031;-93
2023/04/29 01:03:47;;;;;;;0.00;0.00;;;18.30;99.90;;;;;;4976619;28;20038;-93
2023/04/29 01:06:38;;;;;;;0.00;0.00;;;18.40;99.90;;;;;;4976640;28;20483;-95
2023/04/29 01:09:30;;;;;;;0.10;0.10;;;18.50;99.90;;;;;;4959107;28;20193;-92
2023/04/29 01:12:20;;;;;;;0.00;0.00;;;18.40;99.90;;;;;;4959300;28;20090;-94
2023/04/29 01:15:11;;;;;;;0.20;0.20;;;18.40;99.90;;;;;;4976410;28;20031;-91
2023/04/29 01:17:45;;;;;;;0.10;0.10;;;18.50;99.90;;;;;;4975928;28;20503;-93
2023/04/29 01:20:12;;;;;;;0.00;0.00;;;18.60;99.90;;;;;;4976233;28;20097;-93
2023/04/29 01:22:38;;;;;;;0.00;0.00;;;18.40;99.90;;;;;;4976585;28;20074;-93
2023/04/29 01:25:05;;;;;;;0.00;0.00;;;18.40;99.90;;;;;;4976229;28;20126;-92
2023/04/29 01:27:50;;;;;;;0.00;0.00;;;18.20;99.90;;;;;;4959569;28;20388;-91
2023/04/29 01:30:22;;;;;;;0.00;0.00;;;18.30;99.90;;;;;;4958739;28;20057;-93
2023/04/29 01:32:53;;;;;;;0.00;0.00;;;18.10;99.90;;;;;;4976068;28;20125;-94
2023/04/29 01:35:42;;;;;;;0.05;0.05;;;18.30;99.90;;;;;;4975823;28;20047;-95
2023/04/29 01:38:31;;;;;;;0.45;0.10;;;18.30;99.90;;;;;;4976383;28;20027;-92
2023/04/29 01:41:41;;;;;;;0.10;0.10;;;18.40;99.90;;;;;;4975928;28;20061;-92
2023/04/29 01:44:12;;;;;;;0.10;0.10;;;18.50;99.90;;;;;;4878777;29;20033;-92
2023/04/29 01:46:39;;;;;;;0.10;0.10;;;18.40;99.90;;;;;;4870975;29;20037;-93
2023/04/29 01:49:06;;;;;;;0.00;0.00;;;18.40;99.90;;;;;;4860278;29;20124;-91
2023/04/29 01:51:33;;;;;;;0.08;0.08;;;18.50;99.90;;;;;;4844541;29;20030;-91
2023/04/29 01:53:59;;;;;;;0.00;0.00;;;18.50;99.90;;;;;;4844614;29;20026;-94
2023/04/29 01:56:24;;;;;;;0.00;0.00;;;18.60;99.90;;;;;;4859966;29;20060;-94
2023/04/29 01:58:50;;;;;;;0.10;0.10;;;18.60;99.90;;;;;;4860188;29;20097;-92
2023/04/29 02:01:15;;;;;;;0.00;0.00;;;18.50;99.90;;;;;;4860030;29;20049;-91
2023/04/29 02:03:42;;;;;;;0.00;0.00;;;18.50;99.90;;;;;;4859493;29;20086;-91
2023/04/29 02:06:07;;;;;;;0.00;0.00;;;18.50;99.90;;;;;;4859546;29;20487;-91
2023/04/29 02:08:33;;;;;;;0.00;0.00;;;18.60;99.90;;;;;;4859841;29;20044;-91
2023/04/29 02:10:59;;;;;;;0.00;0.00;;;18.30;99.90;;;;;;4859599;29;20061;-90
2023/04/29 02:13:25;;;;;;;0.10;0.10;;;18.30;99.90;;;;;;4859262;29;20137;-91
2023/04/29 02:15:51;;;;;;;0.10;0.10;;;18.00;99.90;;;;;;4859153;29;20041;-91
2023/04/29 02:18:17;;;;;;;0.20;0.20;;;17.70;99.90;;;;;;4857878;29;20510;-91
2023/04/29 02:20:43;;;;;;;0.00;0.00;;;17.90;99.90;;;;;;4906066;29;20051;-91
2023/04/29 02:23:08;;;;;;;0.00;0.00;;;18.00;99.90;;;;;;4955068;29;20023;-90
2023/04/29 02:25:34;;;;;;;0.00;0.00;;;18.10;99.90;;;;;;4955257;29;20151;-91
2023/04/29 02:28:00;;;;;;;0.10;0.10;;;17.90;99.90;;;;;;4955361;29;20388;-91
2023/04/29 02:30:25;;;;;;;0.00;0.00;;;17.80;99.90;;;;;;4955521;29;20024;-90
2023/04/29 02:32:51;;;;;;;0.00;0.00;;;18.00;99.90;;;;;;4955230;29;20435;-90
2023/04/29 02:35:17;;;;;;;0.10;0.10;;;18.20;99.90;;;;;;4955252;29;20041;-91
2023/04/29 02:37:44;;;;;;;0.00;0.00;;;18.20;99.90;;;;;;4956050;29;20035;-90
2023/04/29 02:40:10;;;;;;;0.00;0.00;;;18.20;99.90;;;;;;4955190;29;20043;-91
2023/04/29 02:42:36;;;;;;;0.10;0.10;;;18.10;99.90;;;;;;4955754;29;20011;-90
2023/04/29 02:45:02;;;;;;;0.10;0.10;;;17.90;99.90;;;;;;4937952;29;20046;-90
2023/04/29 02:47:28;;;;;;;0.10;0.10;;;17.80;99.90;;;;;;4969822;28;20027;-90
2023/04/29 02:49:53;;;;;;;0.15;0.08;;;17.70;99.90;;;;;;4974512;28;20511;-90
2023/04/29 02:52:19;;;;;;;0.00;0.00;;;17.80;99.90;;;;;;4974295;28;20026;-91
2023/04/29 02:54:45;;;;;;;0.00;0.00;;;18.00;99.90;;;;;;4956577;28;20031;-90
2023/04/29 02:57:11;;;;;;;0.08;0.08;;;18.10;99.90;;;;;;4957290;28;20121;-91
2023/04/29 02:59:36;;;;;;;0.20;0.20;;;18.10;99.90;;;;;;4956917;28;20046;-90
2023/04/29 03:02:02;;;;;;;0.20;0.20;;;18.10;99.90;;;;;;4973761;28;20561;-92
2023/04/29 03:04:28;;;;;;;0.20;0.20;;;17.70;99.90;;;;;;4956959;28;20559;-92
2023/04/29 03:06:57;;;;;;;0.20;0.20;;;17.60;99.90;;;;;;4974615;28;20018;-91
2023/04/29 03:09:23;;;;;;;0.10;0.10;;;17.30;99.90;;;;;;4974371;28;20447;-89
2023/04/29 03:11:49;;;;;;;0.00;0.00;;;17.30;99.90;;;;;;4974069;28;20026;-92
2023/04/29 03:14:14;;;;;;;0.00;0.00;;;17.40;99.90;;;;;;4974099;28;20026;-93
2023/04/29 03:16:41;;;;;;;0.03;0.03;;;17.30;99.90;;;;;;4956195;28;20027;-90
2023/04/29 03:19:07;;;;;;;0.32;0.32;;;17.10;99.90;;;;;;4973810;28;20108;-90
2023/04/29 03:21:32;;;;;;;0.10;0.10;;;17.30;99.90;;;;;;4957106;28;20026;-90
2023/04/29 03:23:58;;;;;;;0.17;0.08;;;17.50;99.90;;;;;;4974180;28;20031;-91
2023/04/29 03:26:24;;;;;;;0.00;0.00;;;17.60;99.90;;;;;;4957252;28;20529;-91
2023/04/29 03:28:50;;;;;;;0.00;0.00;;;17.70;99.90;;;;;;4956469;28;20023;-91
2023/04/29 03:31:16;;;;;;;0.00;0.00;;;17.70;99.90;;;;;;4973690;28;20062;-91
2023/04/29 03:33:42;;;;;;;0.93;0.40;;;17.80;99.90;;;;;;4973922;28;20042;-90
2023/04/29 03:36:08;;;;;;;0.10;0.10;;;17.40;99.90;;;;;;4956320;28;20035;-90
2023/04/29 03:38:34;;;;;;;0.15;0.10;;;17.30;99.90;;;;;;4974186;28;20047;-91
2023/04/29 03:41:00;;;;;;;0.05;0.05;;;17.30;99.90;;;;;;4973674;28;20495;-90
2023/04/29 03:43:26;;;;;;;0.00;0.00;;;17.50;99.90;;;;;;4974371;28;20105;-90
2023/04/29 03:45:52;;;;;;;0.10;0.10;;;17.50;99.90;;;;;;4956448;28;20111;-91
2023/04/29 03:48:18;;;;;;;0.65;0.20;;;17.40;99.90;;;;;;4973963;28;20078;-91
2023/04/29 03:50:44;;;;;;;0.20;0.20;;;17.20;99.90;;;;;;4974527;28;20023;-91
2023/04/29 03:53:11;;;;;;;0.00;0.00;;;17.30;99.90;;;;;;4956501;28;20030;-90
2023/04/29 03:55:36;;;;;;;0.10;0.10;;;17.40;99.90;;;;;;4973761;28;20118;-90
2023/04/29 03:58:02;;;;;;;0.10;0.10;;;17.20;99.90;;;;;;4956375;28;20146;-90
2023/04/29 04:00:30;;;;;;;0.10;0.10;;;17.10;99.90;;;;;;4973482;28;20402;-90
2023/04/29 04:02:56;;;;;;;0.10;0.10;;;17.00;99.90;;;;;;4973688;28;20101;-90
2023/04/29 04:05:24;;;;;;;0.00;0.00;;;17.00;99.90;;;;;;4956486;28;20035;-90
2023/04/29 04:07:51;;;;;;;0.10;0.10;;;17.20;99.90;;;;;;4977222;28;20031;-92
2023/04/29 04:10:17;;;;;;;0.00;0.00;;;17.10;99.90;;;;;;4977776;28;20511;-91
2023/04/29 04:12:43;;;;;;;0.00;0.00;;;17.20;99.90;;;;;;4977178;28;20042;-91
2023/04/29 04:15:09;;;;;;;0.00;0.00;;;17.40;99.90;;;;;;4959405;28;20026;-91
2023/04/29 04:17:35;;;;;;;0.20;0.20;;;17.40;99.90;;;;;;4976892;28;20061;-92
2023/04/29 04:20:00;;;;;;;0.00;0.00;;;17.20;99.90;;;;;;4960529;28;20050;-91
2023/04/29 04:22:26;;;;;;;0.00;0.00;;;17.20;99.90;;;;;;4977301;28;20394;-91
2023/04/29 04:24:54;;;;;;;0.00;0.00;;;17.40;99.90;;;;;;4977636;28;20055;-91
2023/04/29 04:27:20;;;;;;;0.30;0.30;;;17.30;99.90;;;;;;4976858;28;20114;-91
2023/04/29 04:29:45;;;;;;;0.10;0.10;;;17.10;99.90;;;;;;4976501;28;20113;-92
2023/04/29 04:32:11;;;;;;;0.65;0.47;;;17.00;99.90;;;;;;4976830;28;20073;-91
2023/04/29 04:34:38;;;;;;;0.00;0.00;;;17.00;99.90;;;;;;4959985;28;20078;-92
2023/04/29 04:37:05;;;;;;;0.00;0.00;;;16.80;99.90;;;;;;4959423;28;20058;-91
2023/04/29 04:39:31;;;;;;;0.00;0.00;;;16.80;99.90;;;;;;4959953;28;20495;-91
2023/04/29 04:41:56;;;;;;;0.05;0.05;;;17.10;99.90;;;;;;4976750;28;20107;-91
2023/04/29 04:44:22;;;;;;;0.00;0.00;;;17.20;99.90;;;;;;4976147;28;20046;-91
2023/04/29 04:46:49;;;;;;;0.00;0.00;;;17.30;99.90;;;;;;4959694;28;20027;-91
2023/04/29 04:49:15;;;;;;;0.00;0.00;;;17.10;99.90;;;;;;4959206;28;20380;-93
2023/04/29 04:51:44;;;;;;;0.00;0.00;;;17.20;99.90;;;;;;4976473;28;20027;-91
2023/04/29 04:54:09;;;;;;;0.10;0.10;;;17.30;99.90;;;;;;4976517;28;20051;-92
2023/04/29 04:56:36;;;;;;;0.00;0.00;;;17.20;99.90;;;;;;4959780;28;20059;-92
2023/04/29 04:59:02;;;;;;;0.15;0.15;;;17.30;99.90;;;;;;4976154;28;20062;-92
2023/04/29 05:01:28;;;;;;;0.00;0.00;;;17.40;99.90;;;;;;4976811;28;20487;-92
2023/04/29 05:03:54;;;;;;;0.00;0.00;;;17.50;99.90;;;;;;4958877;28;20403;-91
2023/04/29 05:06:20;;;;;;;0.10;0.10;;;17.50;99.90;;;;;;4976737;28;20027;-92
2023/04/29 05:08:45;;;;;;;0.00;0.00;;;17.40;99.90;;;;;;4976424;28;20023;-92
2023/04/29 05:11:19;;;;;;;0.00;0.00;;;17.60;99.90;;;;;;4976573;28;20027;-91
2023/04/29 05:13:44;;;;;;;0.00;0.00;;;17.60;99.90;;;;;;4976251;28;20054;-92
2023/04/29 05:16:10;;;;;;;0.10;0.05;;;17.60;99.90;;;;;;4976202;28;20031;-92
2023/04/29 05:18:36;;;;;;;0.00;0.00;;;17.60;99.90;;;;;;4967779;28;20047;-93
2023/04/29 05:21:02;;;;;;;0.00;0.00;;;17.50;99.90;;;;;;4957208;29;20488;-93
2023/04/29 05:23:27;;;;;;;0.00;0.00;;;17.40;99.90;;;;;;4957084;29;20027;-92
2023/04/29 05:25:53;;;;;;;0.13;0.13;;;17.40;99.90;;;;;;4956866;29;20073;-92
2023/04/29 05:28:19;;;;;;;0.00;0.00;;;17.40;99.90;;;;;;4956679;29;20157;-92
2023/04/29 05:30:45;;;;;;;0.00;0.00;;;17.10;99.90;;;;;;4956835;29;20027;-93
2023/04/29 05:33:11;;;;;;;0.17;0.17;;;16.80;99.90;;;;;;4956756;29;20428;-91
2023/04/29 05:35:36;;;;;;;0.10;0.10;;;17.00;99.90;;;;;;4939326;29;20031;-92
2023/04/29 05:38:02;;;;;;;0.10;0.10;;;17.20;99.90;;;;;;4956830;29;20019;-92
2023/04/29 05:40:28;;;;;;;0.00;0.00;;;17.20;99.90;;;;;;4956501;29;20039;-92
2023/04/29 05:42:54;;;;;;;0.00;0.00;;;17.00;99.90;;;;;;4956279;29;20522;-92
2023/04/29 05:45:19;;;;;;;0.15;0.15;;;17.00;99.90;;;;;;4956300;29;20051;-92
2023/04/29 05:47:45;;;;;;;0.10;0.10;;;17.20;99.90;;;;;;4973468;28;20423;-92
2023/04/29 05:50:11;;;;;;;0.20;0.20;;;17.40;99.90;;;;;;4975523;28;20054;-92
2023/04/29 05:52:37;;;;;;;0.00;0.00;;;17.50;99.90;;;;;;4975505;28;20027;-91
2023/04/29 05:55:03;;;;;;;0.05;0.05;;;17.60;99.90;;;;;;4975263;28;20030;-92
2023/04/29 05:57:28;;;;;;;0.20;0.20;;;17.50;99.90;;;;;;4975408;28;20098;-92
2023/04/29 05:59:54;;;;;;;0.00;0.00;;;17.60;99.90;;;;;;4975313;28;20074;-92
2023/04/29 06:02:20;;;;;;;0.38;0.20;;;17.50;99.90;;;;;;4975286;28;20033;-92
2023/04/29 06:04:46;;;;;;;0.00;0.00;;;17.40;99.90;;;;;;4975376;28;20035;-92
2023/04/29 06:07:12;;;;;;;0.00;0.00;;;17.30;99.90;;;;;;4975206;28;20022;-92
2023/04/29 06:09:38;;;;;;;0.22;0.10;;;17.10;99.90;;;;;;4957730;28;20391;-92
2023/04/29 06:12:04;;;;;;;0.10;0.10;;;17.00;99.90;;;;;;4974521;28;20102;-92
2023/04/29 06:14:30;;;;;;;0.15;0.15;;;16.90;99.90;;;;;;4975250;28;20037;-91
2023/04/29 06:16:56;;;;;;;0.10;0.10;;;16.80;99.90;;;;;;4957512;28;20109;-82
2023/04/29 06:19:23;;;;;;;0.10;0.10;;;17.00;99.90;;;;;;4974117;28;20045;-83
2023/04/29 06:21:49;;;;;;;0.43;0.30;;;17.00;99.90;;;;;;4974598;28;20038;-84
2023/04/29 06:24:15;;;;;;;0.10;0.10;;;17.20;99.90;;;;;;4977077;28;20030;-83
2023/04/29 06:26:41;;;;;;;0.00;0.00;;;17.30;99.90;;;;;;4976440;28;20499;-84
2023/04/29 06:29:07;;;;;;;0.13;0.13;;;17.50;99.90;;;;;;4973767;28;20065;-82
2023/04/29 06:31:32;;;;;;;0.45;0.43;;;17.40;99.90;;;;;;4974150;28;20038;-81
2023/04/29 06:33:58;;;;;;;0.00;0.00;;;17.40;99.90;;;;;;4974071;28;20142;-82
2023/04/29 06:36:23;;;;;;;0.03;0.03;;;17.40;99.90;;;;;;4973960;28;20027;-82
2023/04/29 06:38:49;;;;;;;0.10;0.10;;;17.40;99.90;;;;;;4973947;28;20059;-82
2023/04/29 06:41:15;;;;;;;0.00;0.00;;;17.30;99.90;;;;;;4973539;28;20035;-82
2023/04/29 06:43:42;;;;;;;0.13;0.13;;;17.40;99.90;;;;;;4973893;28;20534;-82
2023/04/29 06:46:08;;;;;;;0.10;0.10;;;17.40;99.90;;;;;;4973657;28;20030;-82
2023/04/29 06:48:33;;;;;;;0.17;0.15;;;17.30;99.90;;;;;;4973946;28;20514;-82
2023/04/29 06:50:59;;;;;;;0.20;0.20;;;17.30;99.90;;;;;;4973842;28;20031;-82
2023/04/29 06:53:25;;;;;;;0.20;0.20;;;17.40;99.90;;;;;;4974258;28;20031;-81
2023/04/29 06:55:50;;;;;;;0.20;0.15;;;17.30;99.90;;;;;;4973241;28;20023;-82
2023/04/29 06:58:17;;;;;;;0.13;0.13;;;17.40;99.90;;;;;;4974353;28;20082;-81
2023/04/29 07:00:47;;;;;;;0.20;0.20;;;17.60;99.90;;;;;;4973508;28;20037;-81
2023/04/29 07:03:13;;;;;;;0.10;0.10;;;17.70;99.90;;;;;;4973686;28;20023;-82
2023/04/29 07:05:40;;;;;;;0.20;0.20;;;17.70;99.90;;;;;;4973417;28;20039;-82
2023/04/29 07:08:07;;;;;;;0.22;0.22;;;17.90;99.90;;;;;;4973848;28;20033;-82
2023/04/29 07:10:33;;;;;;;0.30;0.30;;;18.20;99.90;;;;;;4973316;28;20057;-82
2023/04/29 07:12:59;;;;;;;0.00;0.00;;;18.20;99.90;;;;;;4973504;28;20034;-82
2023/04/29 07:15:26;;;;;;;0.10;0.10;;;18.10;99.90;;;;;;4973156;28;20031;-82
2023/04/29 07:17:51;;;;;;;0.10;0.10;;;18.10;99.90;;;;;;4972643;28;20589;-82
2023/04/29 07:20:17;;;;;;;0.50;0.40;;;18.20;99.90;;;;;;4973039;28;20038;-82
2023/04/29 07:22:43;;;;;;;0.08;0.08;;;18.10;99.90;;;;;;4973696;28;20486;-80
2023/04/29 07:25:09;;;;;;;0.15;0.15;;;18.10;99.90;;;;;;4973335;28;20077;-82
2023/04/29 07:27:35;;;;;;;0.00;0.00;;;18.20;99.90;;;;;;4973487;28;20059;-81
2023/04/29 07:30:02;;;;;;;0.10;0.10;;;18.50;99.90;;;;;;4973778;28;20047;-81
2023/04/29 07:32:27;;;;;;;0.00;0.00;;;18.70;99.90;;;;;;4973357;28;20035;-81
2023/04/29 07:34:53;;;;;;;0.10;0.10;;;18.90;99.90;;;;;;4973325;28;20085;-81
2023/04/29 07:37:19;;;;;;;0.10;0.10;;;18.80;99.90;;;;;;4972775;28;20364;-81
2023/04/29 07:39:45;;;;;;;0.10;0.10;;;18.90;99.90;;;;;;4973613;28;20031;-81
2023/04/29 07:42:10;;;;;;;0.20;0.20;;;18.90;99.90;;;;;;4977566;28;20030;-81
2023/04/29 07:44:36;;;;;;;0.20;0.20;;;18.80;99.90;;;;;;4977275;28;20027;-81
2023/04/29 07:47:02;;;;;;;0.45;0.45;;;18.70;99.90;;;;;;4977050;28;20395;-81
2023/04/29 07:49:27;;;;;;;0.10;0.10;;;18.60;99.90;;;;;;4977084;28;20483;-81
2023/04/29 07:51:53;;;;;;;0.20;0.20;;;18.50;99.90;;;;;;4976955;28;20058;-81
2023/04/29 07:54:19;;;;;;;0.10;0.10;;;18.50;99.90;;;;;;4976936;28;20038;-81
2023/04/29 07:56:47;;;;;;;0.15;0.15;;;18.70;99.90;;;;;;4977835;28;20027;-81
2023/04/29 07:59:13;;;;;;;0.00;0.00;;;18.80;99.90;;;;;;4976868;28;20041;-82
2023/04/29 08:01:41;;;;;;;0.00;0.00;;;19.00;99.90;;;;;;4976905;28;20023;-82
2023/04/29 08:04:07;;;;;;;0.22;0.13;;;18.90;99.90;;;;;;4977224;28;20454;-81
2023/04/29 08:06:33;;;;;;;0.63;0.63;;;19.10;99.90;;;;;;4976255;28;20098;-82
2023/04/29 08:08:59;;;;;;;0.70;0.68;;;19.40;99.90;;;;;;4976696;28;20031;-81
2023/04/29 08:11:26;;;;;;;0.45;0.45;;;19.50;99.90;;;;;;4976765;28;20098;-81
2023/04/29 08:13:52;;;;;;;0.20;0.20;;;19.50;99.90;;;;;;4976683;28;20030;-82
2023/04/29 08:16:18;;;;;;;0.10;0.10;;;19.40;99.90;;;;;;4977362;28;20073;-81
2023/04/29 08:18:43;;;;;;;0.03;0.03;;;19.30;99.90;;;;;;4976490;28;20043;-82
2023/04/29 08:21:12;;;;;;;0.05;0.05;;;19.40;99.90;;;;;;4976110;28;20061;-81
2023/04/29 08:23:38;;;;;;;0.28;0.28;;;19.40;99.90;;;;;;4976483;28;20436;-82
2023/04/29 08:26:04;;;;;;;0.10;0.10;;;19.50;99.90;;;;;;4976306;28;20027;-81
2023/04/29 08:28:30;;;;;;;0.15;0.15;;;19.90;99.90;;;;;;4976423;28;20033;-82
2023/04/29 08:30:56;;;;;;;0.20;0.20;;;20.10;99.90;;;;;;4976016;28;20046;-82
2023/04/29 08:33:22;;;;;;;0.10;0.10;;;20.10;99.90;;;;;;4977033;28;20030;-82
2023/04/29 08:35:48;;;;;;;0.05;0.05;;;19.90;99.90;;;;;;4976024;28;20422;-81
2023/04/29 08:38:13;;;;;;;0.10;0.10;;;19.70;99.90;;;;;;4976276;28;20480;-81
2023/04/29 08:40:45;;;;;;;0.00;0.00;;;19.90;99.90;;;;;;4976101;28;20039;-81
2023/04/29 08:43:14;;;;;;;0.08;0.08;;;19.60;99.90;;;;;;4976069;28;20031;-82
2023/04/29 08:45:41;;;;;;;0.00;0.00;;;19.70;99.90;;;;;;4976100;28;20035;-82
2023/04/29 08:48:07;;;;;;;0.08;0.08;;;19.70;99.90;;;;;;4976414;28;20034;-81
2023/04/29 08:50:40;;;;;;;0.10;0.10;;;19.80;99.90;;;;;;4975853;28;20030;-81
2023/04/29 08:53:06;;;;;;;0.10;0.10;;;19.70;99.90;;;;;;4975115;28;20046;-81
2023/04/29 08:55:45;;;;;;;0.20;0.20;;;19.50;99.90;;;;;;4975890;28;20147;-81
2023/04/29 08:58:12;;;;;;;0.00;0.00;;;19.60;99.90;;;;;;4975967;28;20081;-81
2023/04/29 09:00:40;;;;;;;0.22;0.20;;;19.70;99.90;;;;;;4975742;28;20067;-81
2023/04/29 09:03:32;;;;;;;0.00;0.00;;;19.60;99.90;;;;;;4975696;28;20446;-81
2023/04/29 09:06:00;;;;;;;0.22;0.15;;;19.70;99.90;;;;;;4975537;28;20089;-82
2023/04/29 09:08:26;;;;;;;0.10;0.10;;;19.70;99.90;;;;;;4975677;28;20027;-81
2023/04/29 09:10:52;;;;;;;0.00;0.00;;;19.50;99.90;;;;;;4975554;28;20105;-82
2023/04/29 09:13:28;;;;;;;0.00;0.00;;;19.20;99.90;;;;;;4975634;28;20031;-81
2023/04/29 09:15:54;;;;;;;0.00;0.00;;;19.00;99.90;;;;;;4975803;28;20023;-81
2023/04/29 09:18:42;;;;;;;0.10;0.10;;;18.90;99.90;;;;;;4974935;28;20034;-82
2023/04/29 09:21:19;;;;;;;0.10;0.10;;;18.50;99.90;;;;;;4975360;28;20110;-81
2023/04/29 09:23:46;;;;;;;0.00;0.00;;;18.70;99.90;;;;;;4975413;28;20026;-81
2023/04/29 09:26:13;;;;;;;0.08;0.08;;;18.80;99.90;;;;;;4975314;28;20105;-81
2023/04/29 09:28:40;;;;;;;0.32;0.28;;;18.80;99.90;;;;;;4975571;28;20565;-81
2023/04/29 09:31:07;;;;;;;0.10;0.10;;;18.70;99.90;;;;;;4975132;28;20424;-81
2023/04/29 09:33:50;;;;;;;0.20;0.20;;;18.80;99.90;;;;;;4974860;28;20046;-81
2023/04/29 09:36:37;;;;;;;0.17;0.17;;;19.00;99.90;;;;;;4975152;28;20058;-82
2023/04/29 09:39:10;;;;;;;0.00;0.00;;;18.90;99.90;;;;;;4975025;28;20039;-81
2023/04/29 09:41:40;;;;;;;0.22;0.22;;;18.90;99.90;;;;;;4975450;28;20029;-81
2023/04/29 09:44:14;;;;;;;0.17;0.17;;;19.10;99.90;;;;;;4957660;28;20387;-81
2023/04/29 09:46:40;;;;;;;0.52;0.40;;;19.30;99.90;;;;;;4975197;28;20049;-81
2023/04/29 09:49:25;;;;;;;0.00;0.00;;;19.30;99.90;;;;;;4975535;28;20390;-81
2023/04/29 09:51:59;;;;;;;0.00;0.00;;;19.40;99.90;;;;;;4974831;28;20050;-81
2023/04/29 09:54:27;;;;;;;0.10;0.10;;;19.20;99.90;;;;;;4974768;28;20011;-81
2023/04/29 09:56:53;;;;;;;0.10;0.10;;;19.20;99.90;;;;;;4974828;28;20113;-81
2023/04/29 09:59:20;;;;;;;0.10;0.10;;;19.20;99.90;;;;;;4975043;28;20081;-81
2023/04/29 10:01:56;;;;;;;0.10;0.10;;;19.10;99.90;;;;;;4974727;28;20030;-81
2023/04/29 10:04:26;;;;;;;0.75;0.20;;;19.10;99.90;;;;;;4974204;28;20494;-82
2023/04/29 10:06:54;;;;;;;0.03;0.03;;;19.00;99.90;;;;;;4974649;28;20379;-82
2023/04/29 10:09:22;;;;;;;0.00;0.00;;;18.90;99.90;;;;;;4974489;28;20454;-81
2023/04/29 10:11:50;;;;;;;0.43;0.10;;;18.90;99.90;;;;;;4974421;28;20492;-82
2023/04/29 10:14:18;;;;;;;0.10;0.10;;;18.80;99.90;;;;;;4974560;28;20023;-81
2023/04/29 10:16:57;;;;;;;0.00;0.00;;;18.90;99.90;;;;;;4975026;28;20039;-82
2023/04/29 10:19:23;;;;;;;0.20;0.20;;;19.00;99.90;;;;;;4975252;28;20134;-82
2023/04/29 10:21:49;;;;;;;0.00;0.00;;;19.10;99.90;;;;;;4974973;28;20515;-81
2023/04/29 10:24:18;;;;;;;0.00;0.00;;;19.10;99.90;;;;;;4975333;28;20023;-82
2023/04/29 10:26:45;;;;;;;0.10;0.10;;;19.30;99.90;;;;;;4974624;28;20022;-81
2023/04/29 10:29:13;;;;;;;0.00;0.00;;;19.50;99.90;;;;;;4974920;28;20402;-81
2023/04/29 10:31:40;;;;;;;0.10;0.10;;;19.50;99.90;;;;;;4973803;28;20026;-81
2023/04/29 10:34:05;;;;;;;0.00;0.00;;;19.30;99.90;;;;;;4974198;28;20169;-81
2023/04/29 10:36:33;;;;;;;0.00;0.00;;;19.20;99.90;;;;;;4974018;28;20543;-81
2023/04/29 10:39:02;;;;;;;0.10;0.10;;;19.30;99.90;;;;;;4973940;28;20073;-81
2023/04/29 10:41:46;;;;;;;0.00;0.00;;;19.20;99.90;;;;;;4974474;28;20483;-81
2023/04/29 10:44:13;;;;;;;0.00;0.00;;;19.10;99.90;;;;;;4973718;28;20035;-81
2023/04/29 10:46:39;;;;;;;0.00;0.00;;;19.40;99.90;;;;;;4973356;28;20169;-81
2023/04/29 10:49:06;;;;;;;0.00;0.00;;;19.30;99.90;;;;;;4974208;28;20105;-81
2023/04/29 10:51:39;;;;;;;0.10;0.10;;;19.40;99.90;;;;;;4973957;28;20026;-81
2023/04/29 10:54:14;;;;;;;0.15;0.15;;;19.30;99.90;;;;;;4974648;28;20044;-81
2023/04/29 10:56:50;;;;;;;0.00;0.00;;;19.20;99.90;;;;;;4973809;28;20134;-81
2023/04/29 10:59:20;;;;;;;0.00;0.00;;;19.30;99.90;;;;;;4973805;28;20030;-81
2023/04/29 11:01:52;;;;;;;0.00;0.00;;;19.20;99.90;;;;;;4973421;28;20484;-81
2023/04/29 11:04:21;;;;;;;0.00;0.00;;;19.40;99.90;;;;;;4974190;28;20035;-82
2023/04/29 11:06:52;;;;;;;0.05;0.05;;;19.50;99.90;;;;;;4973563;28;20031;-81
2023/04/29 11:09:23;;;;;;;0.10;0.10;;;19.70;99.90;;;;;;4973590;28;20065;-81
2023/04/29 11:11:56;;;;;;;0.22;0.10;;;19.60;99.90;;;;;;4973419;28;20427;-81
2023/04/29 11:14:47;;;;;;;0.30;0.30;;;19.70;99.90;;;;;;4973956;28;20106;-81
2023/04/29 11:17:15;;;;;;;0.00;0.00;;;20.20;99.90;;;;;;4973599;28;20111;-81
2023/04/29 11:19:51;;;;;;;0.00;0.00;;;20.20;99.90;;;;;;4973828;28;20061;-82
2023/04/29 11:22:17;;;;;;;0.20;0.20;;;20.20;99.90;;;;;;4973576;28;20495;-81
2023/04/29 11:25:07;;;;;;;0.10;0.10;;;20.10;99.90;;;;;;4973428;28;20025;-81
2023/04/29 11:27:39;;;;;;;0.13;0.10;;;20.10;99.90;;;;;;4973635;28;20186;-81
2023/04/29 11:30:06;;;;;;;0.10;0.10;;;20.10;99.90;;;;;;4972949;28;20027;-81
2023/04/29 11:32:34;;;;;;;0.03;0.03;;;20.50;99.90;;;;;;4973567;28;20113;-81
2023/04/29 11:35:16;;;;;;;0.10;0.10;;;20.70;99.90;;;;;;4955917;28;20034;-81
2023/04/29 11:37:44;;;;;;;0.05;0.05;;;20.80;99.90;;;;;;4973230;28;20093;-81
2023/04/29 11:40:12;;;;;;;0.30;0.10;;;20.90;99.90;;;;;;4973255;28;20118;-81
2023/04/29 11:42:48;;;;;;;0.10;0.10;;;20.90;99.90;;;;;;4973537;28;20511;-82
2023/04/29 11:45:16;;;;;;;0.10;0.10;;;20.90;99.90;;;;;;4973060;28;20027;-82
2023/04/29 11:47:45;;;;;;;0.10;0.10;;;21.00;99.90;;;;;;4973171;28;20031;-81
2023/04/29 11:50:14;;;;;;;0.30;0.20;;;20.90;99.90;;;;;;4973236;28;20026;-81
2023/04/29 11:52:40;;;;;;;0.00;0.00;;;20.80;99.90;;;;;;4973226;28;20030;-81
2023/04/29 11:55:10;;;;;;;0.00;0.00;;;20.70;99.90;;;;;;4972941;28;20040;-81
2023/04/29 11:57:36;;;;;;;0.10;0.10;;;20.60;99.90;;;;;;4973361;28;20026;-81
2023/04/29 12:00:03;;;;;;;0.20;0.20;;;20.40;99.90;;;;;;4972761;28;20038;-82
2023/04/29 12:02:32;;;;;;;0.30;0.15;;;20.50;99.90;;;;;;4973270;28;20030;-81
2023/04/29 12:05:01;;;;;;;0.40;0.30;;;20.70;99.90;;;;;;4973046;28;20379;-81
2023/04/29 12:07:27;;;;;;;0.08;0.08;;;20.80;99.90;;;;;;4973306;28;20074;-81
2023/04/29 12:09:55;;;;;;;0.00;0.00;;;20.90;99.90;;;;;;4973004;28;20058;-82
2023/04/29 12:12:21;;;;;;;0.03;0.03;;;20.90;99.90;;;;;;4972810;28;20031;-81
2023/04/29 12:14:47;;;;;;;0.00;0.00;;;21.00;99.90;;;;;;4972476;28;20372;-82
2023/04/29 12:17:13;;;;;;;1.02;0.47;;;21.20;99.90;;;;;;4973128;28;20051;-81
2023/04/29 12:19:40;;;;;;;0.00;0.00;;;21.70;99.90;;;;;;4972640;28;20406;-81
2023/04/29 12:22:05;;;;;;;0.20;0.20;;;23.20;99.90;;;;;;4973054;28;20047;-81
2023/04/29 12:24:39;;;;;;;0.10;0.10;;;23.60;99.90;;;;;;4972898;28;20416;-82
2023/04/29 12:27:09;;;;;;;0.52;0.52;;;23.20;99.90;;;;;;4973603;28;20031;-82
2023/04/29 12:29:39;;;;;;;0.00;0.00;;;23.10;99.90;;;;;;4976603;28;20054;-81
2023/04/29 12:32:05;;;;;;;0.00;0.00;;;22.50;99.90;;;;;;4976353;28;20037;-81
2023/04/29 12:34:32;;;;;;;0.10;0.10;;;22.60;99.90;;;;;;4976352;28;20105;-82
2023/04/29 12:37:01;;;;;;;0.00;0.00;;;22.20;99.90;;;;;;4976426;28;20034;-82
2023/04/29 12:39:27;;;;;;;0.00;0.00;;;21.80;99.90;;;;;;4976218;28;20079;-81
2023/04/29 12:41:56;;;;;;;0.00;0.00;;;21.90;99.90;;;;;;4976113;28;20121;-81
2023/04/29 12:44:22;;;;;;;0.10;0.10;;;21.80;99.90;;;;;;4976786;28;20019;-81
2023/04/29 12:46:48;;;;;;;0.00;0.00;;;21.60;99.90;;;;;;4975998;28;20356;-81
2023/04/29 12:49:13;;;;;;;0.10;0.10;;;21.40;99.90;;;;;;4976184;28;20031;-81
2023/04/29 12:51:39;;;;;;;0.00;0.00;;;21.40;99.90;;;;;;4975891;28;20479;-82